createdAt,value
2023-02-25T00:00:33.032Z,22.10
2023-02-25T00:02:34.765Z,22.10
2023-02-25T00:04:36.713Z,22.10
2023-02-25T00:06:38.382Z,22.10
2023-02-25T00:08:44.120Z,22.10
2023-02-25T00:10:45.795Z,22.10
2023-02-25T00:12:47.478Z,22.00
2023-02-25T00:14:49.221Z,22.10
2023-02-25T00:16:50.946Z,22.10
2023-02-25T00:18:56.593Z,22.10
2023-02-25T00:20:59.184Z,22.10
2023-02-25T00:23:00.846Z,22.00
2023-02-25T00:25:02.806Z,22.00
2023-02-25T00:27:04.518Z,22.00
2023-02-25T00:29:06.252Z,22.00
2023-02-25T00:31:16.127Z,22.00
2023-02-25T00:33:17.753Z,22.00
2023-02-25T00:35:19.483Z,22.00
2023-02-25T00:37:21.227Z,22.00
2023-02-25T00:39:24.503Z,22.00
2023-02-25T00:41:28.327Z,22.00
2023-02-25T00:43:30.700Z,22.00
2023-02-25T00:45:32.982Z,22.00
2023-02-25T00:47:34.621Z,22.00
2023-02-25T00:49:36.505Z,22.00
2023-02-25T00:51:39.059Z,22.00
2023-02-25T00:53:41.539Z,22.00
2023-02-25T00:55:43.239Z,22.00
2023-02-25T00:57:44.993Z,21.90
2023-02-25T00:59:46.726Z,21.90
2023-02-25T01:01:48.507Z,21.90
2023-02-25T01:03:52.374Z,21.90
2023-02-25T01:05:54.200Z,21.90
2023-02-25T01:07:55.970Z,21.90
2023-02-25T01:09:57.785Z,21.90
2023-02-25T01:11:59.482Z,21.90
2023-02-25T01:14:04.496Z,21.90
2023-02-25T01:16:21.410Z,21.90
2023-02-25T01:18:24.126Z,21.90
2023-02-25T01:20:25.830Z,21.90
2023-02-25T01:22:27.508Z,21.90
2023-02-25T01:24:31.569Z,21.90
2023-02-25T01:26:37.144Z,21.90
2023-02-25T01:28:38.835Z,21.90
2023-02-25T01:30:40.543Z,21.90
2023-02-25T01:32:42.412Z,21.80
2023-02-25T01:34:44.117Z,21.90
2023-02-25T01:36:47.029Z,21.90
2023-02-25T01:38:49.824Z,21.80
2023-02-25T01:40:58.281Z,21.80
2023-02-25T01:42:59.910Z,21.80
2023-02-25T01:45:17.532Z,21.80
2023-02-25T01:47:22.044Z,21.80
2023-02-25T01:49:32.693Z,21.80
2023-02-25T01:51:36.070Z,21.80
2023-02-25T01:53:42.651Z,21.80
2023-02-25T01:55:44.563Z,21.80
2023-02-25T01:57:46.235Z,21.80
2023-02-25T01:59:50.422Z,21.80
2023-02-25T02:01:52.453Z,21.80
2023-02-25T02:03:54.704Z,21.70
2023-02-25T02:06:00.188Z,21.80
2023-02-25T02:08:02.326Z,21.70
2023-02-25T02:10:04.774Z,21.70
2023-02-25T02:12:07.223Z,21.70
2023-02-25T02:14:12.399Z,21.70
2023-02-25T02:16:43.426Z,21.70
2023-02-25T02:18:52.238Z,21.70
2023-02-25T02:21:05.652Z,21.70
2023-02-25T02:23:28.498Z,21.70
2023-02-25T02:25:57.001Z,21.70
2023-02-25T02:28:28.006Z,21.70
2023-02-25T02:31:03.463Z,21.70
2023-02-25T02:33:22.369Z,21.70
2023-02-25T02:35:30.505Z,21.70
2023-02-25T02:38:13.633Z,21.60
2023-02-25T02:40:30.317Z,21.70
2023-02-25T02:42:37.985Z,21.70
2023-02-25T02:44:52.897Z,21.60
2023-02-25T02:47:06.896Z,21.60
2023-02-25T02:49:34.402Z,21.60
2023-02-25T02:51:41.159Z,21.60
2023-02-25T02:53:55.362Z,21.60
2023-02-25T02:56:01.258Z,21.60
2023-02-25T02:58:10.553Z,21.60
2023-02-25T03:00:17.363Z,21.60
2023-02-25T03:02:34.928Z,21.60
2023-02-25T03:04:39.341Z,21.60
2023-02-25T03:06:44.713Z,21.60
2023-02-25T03:08:56.044Z,21.60
2023-02-25T03:10:57.661Z,21.60
2023-02-25T03:12:59.337Z,21.50
2023-02-25T03:15:00.991Z,21.60
2023-02-25T03:17:05.656Z,21.60
2023-02-25T03:19:21.401Z,21.60
2023-02-25T03:21:27.997Z,21.50
2023-02-25T03:23:32.525Z,21.50
2023-02-25T03:25:47.430Z,21.50
2023-02-25T03:27:53.123Z,21.50
2023-02-25T03:30:04.489Z,21.50
2023-02-25T03:32:12.703Z,21.50
2023-02-25T03:34:32.021Z,21.50
2023-02-25T03:36:59.813Z,21.50
2023-02-25T03:39:11.261Z,21.50
2023-02-25T03:41:15.159Z,21.50
2023-02-25T03:43:24.622Z,21.50
2023-02-25T03:45:26.614Z,21.50
2023-02-25T03:47:30.335Z,21.50
2023-02-25T03:49:43.587Z,21.50
2023-02-25T03:51:47.639Z,21.50
2023-02-25T03:53:50.196Z,21.50
2023-02-25T03:55:52.105Z,21.50
2023-02-25T03:57:53.762Z,21.50
2023-02-25T03:59:56.341Z,21.50
2023-02-25T04:01:59.153Z,21.50
2023-02-25T04:04:00.810Z,21.50
2023-02-25T04:06:02.468Z,21.50
2023-02-25T04:08:16.128Z,21.50
2023-02-25T04:10:18.047Z,21.50
2023-02-25T04:12:19.699Z,21.50
2023-02-25T04:14:21.353Z,21.50
2023-02-25T04:16:23.334Z,21.50
2023-02-25T04:18:26.579Z,21.50
2023-02-25T04:20:29.870Z,21.50
2023-02-25T04:22:31.597Z,21.50
2023-02-25T04:24:33.408Z,21.50
2023-02-25T04:26:36.237Z,21.50
2023-02-25T04:28:37.888Z,21.50
2023-02-25T04:30:39.609Z,21.50
2023-02-25T04:32:41.394Z,21.50
2023-02-25T04:34:43.259Z,21.50
2023-02-25T04:36:45.798Z,21.50
2023-02-25T04:38:47.398Z,21.50
2023-02-25T04:40:51.839Z,21.50
2023-02-25T04:42:53.475Z,21.50
2023-02-25T04:44:56.023Z,21.50
2023-02-25T04:46:57.679Z,21.50
2023-02-25T04:48:59.406Z,21.50
2023-02-25T04:51:02.183Z,21.50
2023-02-25T04:53:04.074Z,21.50
2023-02-25T04:55:06.526Z,21.50
2023-02-25T04:57:09.211Z,21.50
2023-02-25T04:59:12.050Z,21.50
2023-02-25T05:01:14.373Z,21.50
2023-02-25T05:03:16.028Z,21.50
2023-02-25T05:05:17.847Z,21.50
2023-02-25T05:07:19.436Z,21.50
2023-02-25T05:09:21.317Z,21.50
2023-02-25T05:11:23.328Z,21.50
2023-02-25T05:13:25.060Z,21.50
2023-02-25T05:15:26.954Z,21.60
2023-02-25T05:17:28.613Z,21.60
2023-02-25T05:19:30.338Z,21.60
2023-02-25T05:21:32.920Z,21.70
2023-02-25T05:23:34.584Z,21.70
2023-02-25T05:25:41.258Z,21.70
2023-02-25T05:27:42.923Z,21.70
2023-02-25T05:29:44.593Z,21.70
2023-02-25T05:31:47.088Z,21.70
2023-02-25T05:33:48.881Z,21.80
2023-02-25T05:35:51.314Z,21.80
2023-02-25T05:37:53.004Z,21.80
2023-02-25T05:39:54.737Z,21.80
2023-02-25T05:41:56.358Z,21.80
2023-02-25T05:43:58.303Z,21.80
2023-02-25T05:46:04.845Z,21.80
2023-02-25T05:48:06.653Z,21.90
2023-02-25T05:50:09.016Z,21.90
2023-02-25T05:52:12.730Z,21.90
2023-02-25T05:54:14.368Z,21.90
2023-02-25T05:56:28.847Z,21.90
2023-02-25T05:58:32.115Z,22.00
2023-02-25T06:00:33.987Z,22.00
2023-02-25T06:02:36.847Z,22.00
2023-02-25T06:04:38.523Z,22.00
2023-02-25T06:06:40.152Z,22.00
2023-02-25T06:08:44.680Z,22.00
2023-02-25T06:10:46.356Z,22.00
2023-02-25T06:12:48.032Z,22.00
2023-02-25T06:14:49.734Z,22.00
2023-02-25T06:16:51.672Z,22.00
2023-02-25T06:18:53.757Z,22.00
2023-02-25T06:20:55.371Z,22.00
2023-02-25T06:22:57.062Z,22.00
2023-02-25T06:24:58.891Z,22.00
2023-02-25T06:27:00.508Z,22.00
2023-02-25T06:29:02.188Z,22.00
2023-02-25T06:31:12.224Z,22.10
2023-02-25T06:33:13.886Z,22.00
2023-02-25T06:35:15.792Z,22.10
2023-02-25T06:37:17.435Z,22.10
2023-02-25T06:39:19.113Z,22.00
2023-02-25T06:41:22.317Z,22.10
2023-02-25T06:43:24.002Z,22.00
2023-02-25T06:45:25.967Z,22.10
2023-02-25T06:47:27.650Z,22.10
2023-02-25T06:49:30.489Z,22.10
2023-02-25T06:51:32.232Z,22.10
2023-02-25T06:53:33.875Z,22.10
2023-02-25T06:55:37.937Z,22.10
2023-02-25T06:57:39.586Z,22.10
2023-02-25T06:59:41.275Z,22.10
2023-02-25T07:01:42.950Z,22.10
2023-02-25T07:03:44.647Z,22.10
2023-02-25T07:05:46.380Z,22.10
2023-02-25T07:07:48.039Z,22.10
2023-02-25T07:09:49.666Z,22.10
2023-02-25T07:11:51.330Z,22.00
2023-02-25T07:13:53.033Z,22.00
2023-02-25T07:15:54.703Z,22.10
2023-02-25T07:17:56.386Z,22.00
2023-02-25T07:19:58.039Z,22.10
2023-02-25T07:21:59.669Z,22.10
2023-02-25T07:24:01.408Z,22.20
2023-02-25T07:26:05.045Z,22.20
2023-02-25T07:28:06.740Z,22.20
2023-02-25T07:30:09.538Z,22.20
2023-02-25T07:32:11.388Z,22.20
2023-02-25T07:34:14.570Z,22.30
2023-02-25T07:36:17.097Z,22.20
2023-02-25T07:38:18.810Z,22.20
2023-02-25T07:40:20.428Z,22.30
2023-02-25T07:42:22.062Z,22.20
2023-02-25T07:44:23.956Z,22.30
2023-02-25T07:46:26.271Z,22.30
2023-02-25T07:48:28.773Z,22.30
2023-02-25T07:50:30.358Z,22.30
2023-02-25T07:52:32.058Z,22.30
2023-02-25T07:54:33.667Z,22.30
2023-02-25T07:56:35.304Z,22.40
2023-02-25T07:58:37.429Z,22.40
2023-02-25T08:00:40.893Z,22.40
2023-02-25T08:02:44.323Z,22.40
2023-02-25T08:04:46.170Z,22.40
2023-02-25T08:06:47.891Z,22.40
2023-02-25T08:08:52.196Z,22.40
2023-02-25T08:10:53.955Z,22.40
2023-02-25T08:12:55.590Z,22.40
2023-02-25T08:15:00.144Z,22.40
2023-02-25T08:17:01.827Z,22.40
2023-02-25T08:19:05.628Z,22.50
2023-02-25T08:21:07.720Z,22.50
2023-02-25T08:23:09.464Z,22.50
2023-02-25T08:25:11.298Z,22.50
2023-02-25T08:27:12.976Z,22.50
2023-02-25T08:29:15.220Z,22.60
2023-02-25T08:31:18.461Z,22.50
2023-02-25T08:33:20.696Z,22.50
2023-02-25T08:35:22.663Z,22.50
2023-02-25T08:37:25.614Z,22.60
2023-02-25T08:39:27.365Z,22.50
2023-02-25T08:41:29.799Z,22.50
2023-02-25T08:43:32.374Z,22.40
2023-02-25T08:45:34.203Z,22.30
2023-02-25T08:47:36.419Z,22.00
2023-02-25T08:49:38.896Z,22.00
2023-02-25T08:51:40.792Z,22.10
2023-02-25T08:53:42.516Z,22.20
2023-02-25T08:55:44.139Z,22.20
2023-02-25T08:57:45.811Z,22.20
2023-02-25T08:59:47.545Z,22.30
2023-02-25T09:01:50.360Z,22.30
2023-02-25T09:03:55.013Z,22.30
2023-02-25T09:05:57.167Z,22.30
2023-02-25T09:07:59.074Z,22.40
2023-02-25T09:10:00.782Z,22.40
2023-02-25T09:12:05.121Z,22.40
2023-02-25T09:14:07.082Z,22.40
2023-02-25T09:16:09.022Z,22.40
2023-02-25T09:18:11.799Z,22.40
2023-02-25T09:20:13.528Z,22.40
2023-02-25T09:22:15.122Z,22.40
2023-02-25T09:24:17.533Z,22.40
2023-02-25T09:26:20.951Z,22.40
2023-02-25T09:28:24.509Z,22.40
2023-02-25T09:30:26.700Z,22.40
2023-02-25T09:32:28.536Z,22.40
2023-02-25T09:34:30.306Z,22.40
2023-02-25T09:36:32.423Z,22.40
2023-02-25T09:38:35.457Z,22.30
2023-02-25T09:40:38.176Z,22.30
2023-02-25T09:42:53.502Z,22.30
2023-02-25T09:45:01.654Z,22.30
2023-02-25T09:47:09.757Z,22.30
2023-02-25T09:49:45.614Z,22.30
2023-02-25T09:51:56.649Z,22.30
2023-02-25T09:54:17.152Z,22.40
2023-02-25T09:56:21.609Z,22.40
2023-02-25T09:58:35.526Z,22.40
2023-02-25T10:01:01.869Z,22.20
2023-02-25T10:03:22.900Z,22.30
2023-02-25T10:06:02.863Z,22.30
2023-02-25T10:08:23.438Z,22.30
2023-02-25T10:10:55.788Z,22.20
2023-02-25T10:13:06.936Z,22.20
2023-02-25T10:15:27.429Z,22.20
2023-02-25T10:17:46.550Z,22.20
2023-02-25T10:20:38.546Z,22.20
2023-02-25T10:23:06.325Z,22.20
2023-02-25T10:25:20.497Z,22.20
2023-02-25T10:27:31.889Z,22.10
2023-02-25T10:29:40.776Z,22.20
2023-02-25T10:31:46.604Z,22.20
2023-02-25T10:33:50.648Z,22.20
2023-02-25T10:36:00.701Z,22.10
2023-02-25T10:38:02.390Z,22.10
2023-02-25T10:40:10.933Z,22.10
2023-02-25T10:42:12.894Z,22.10
2023-02-25T10:44:14.691Z,22.10
2023-02-25T10:46:31.487Z,22.10
2023-02-25T10:48:35.823Z,22.10
2023-02-25T10:50:45.390Z,22.10
2023-02-25T10:53:02.847Z,22.10
2023-02-25T10:55:04.766Z,22.20
2023-02-25T10:57:16.651Z,22.20
2023-02-25T10:59:31.813Z,22.20
2023-02-25T11:01:40.117Z,22.20
2023-02-25T11:04:00.728Z,22.20
2023-02-25T11:06:31.728Z,22.20
2023-02-25T11:08:33.824Z,22.20
2023-02-25T11:10:35.506Z,22.20
2023-02-25T11:12:49.144Z,22.20
2023-02-25T11:14:50.811Z,22.20
2023-02-25T11:17:02.231Z,22.20
2023-02-25T11:19:26.545Z,22.20
2023-02-25T11:21:37.782Z,22.30
2023-02-25T11:23:42.512Z,22.30
2023-02-25T11:25:44.210Z,22.30
2023-02-25T11:27:54.738Z,22.30
2023-02-25T11:30:04.930Z,22.20
2023-02-25T11:32:17.121Z,22.20
2023-02-25T11:34:31.382Z,22.30
2023-02-25T11:36:38.884Z,22.20
2023-02-25T11:38:42.397Z,22.30
2023-02-25T11:40:45.317Z,22.40
2023-02-25T11:43:05.177Z,22.40
2023-02-25T11:45:16.812Z,22.40
2023-02-25T11:47:33.642Z,22.40
2023-02-25T11:49:42.626Z,22.40
2023-02-25T11:52:17.858Z,22.50
2023-02-25T11:54:39.522Z,22.40
2023-02-25T11:56:48.560Z,22.50
2023-02-25T11:58:57.949Z,22.50
2023-02-25T12:01:04.720Z,22.50
2023-02-25T12:03:38.014Z,22.60
2023-02-25T12:05:54.347Z,22.60
2023-02-25T12:08:34.507Z,22.60
2023-02-25T12:10:59.180Z,22.60
2023-02-25T12:13:16.398Z,22.60
2023-02-25T12:15:48.997Z,22.60
2023-02-25T12:18:26.410Z,22.30
2023-02-25T12:20:46.518Z,22.00
2023-02-25T12:23:18.793Z,22.10
2023-02-25T12:25:26.423Z,22.20
2023-02-25T12:27:49.305Z,22.30
2023-02-25T12:30:25.165Z,22.40
2023-02-25T12:32:57.419Z,22.40
2023-02-25T12:35:26.319Z,22.40
2023-02-25T12:37:31.005Z,22.40
2023-02-25T12:39:47.715Z,22.50
2023-02-25T12:42:04.049Z,22.40
2023-02-25T12:44:54.002Z,22.50
2023-02-25T12:47:23.503Z,22.50
2023-02-25T12:49:33.714Z,22.50
2023-02-25T12:51:53.683Z,22.50
2023-02-25T12:54:28.318Z,22.50
2023-02-25T12:56:54.202Z,22.60
2023-02-25T12:59:10.363Z,22.50
2023-02-25T13:01:34.121Z,22.60
2023-02-25T13:03:44.986Z,22.60
2023-02-25T13:06:03.624Z,22.60
2023-02-25T13:08:27.450Z,22.50
2023-02-25T13:10:40.049Z,22.50
2023-02-25T13:12:53.143Z,22.50
2023-02-25T13:15:20.364Z,22.60
2023-02-25T13:17:55.804Z,22.60
2023-02-25T13:20:38.472Z,22.60
2023-02-25T13:23:04.937Z,22.60
2023-02-25T13:25:38.898Z,22.60
2023-02-25T13:28:01.780Z,22.60
2023-02-25T13:30:26.678Z,22.60
2023-02-25T13:33:11.418Z,22.60
2023-02-25T13:35:32.216Z,22.60
2023-02-25T13:38:08.863Z,22.60
2023-02-25T13:40:26.934Z,22.60
2023-02-25T13:42:34.720Z,22.60
2023-02-25T13:44:42.319Z,22.60
2023-02-25T13:46:53.096Z,22.60
2023-02-25T13:48:57.893Z,22.50
2023-02-25T13:51:24.701Z,22.60
2023-02-25T13:53:45.529Z,22.60
2023-02-25T13:56:10.300Z,22.60
2023-02-25T13:58:45.326Z,22.60
2023-02-25T14:01:24.895Z,22.60
2023-02-25T14:03:59.480Z,22.60
2023-02-25T14:06:35.673Z,22.60
2023-02-25T14:09:11.331Z,22.60
2023-02-25T14:12:06.416Z,22.70
2023-02-25T14:14:32.935Z,22.60
2023-02-25T14:16:45.552Z,22.70
2023-02-25T14:19:00.973Z,22.70
2023-02-25T14:21:39.528Z,22.70
2023-02-25T14:24:02.651Z,22.70
2023-02-25T14:26:26.790Z,22.70
2023-02-25T14:28:40.925Z,22.70
2023-02-25T14:31:20.564Z,22.70
2023-02-25T14:33:36.229Z,22.70
2023-02-25T14:36:16.552Z,22.70
2023-02-25T14:38:27.591Z,22.70
2023-02-25T14:41:01.787Z,22.70
2023-02-25T14:43:26.716Z,22.70
2023-02-25T14:45:40.001Z,22.70
2023-02-25T14:47:47.704Z,22.70
2023-02-25T14:50:03.063Z,22.70
2023-02-25T14:52:34.737Z,22.70
2023-02-25T14:55:25.428Z,22.70
2023-02-25T14:57:45.854Z,22.70
2023-02-25T15:00:22.842Z,22.70
2023-02-25T15:02:39.934Z,22.70
2023-02-25T15:04:59.797Z,22.70
2023-02-25T15:07:09.134Z,22.60
2023-02-25T15:09:22.831Z,22.70
2023-02-25T15:11:56.739Z,22.70
2023-02-25T15:14:39.214Z,22.60
2023-02-25T15:16:52.290Z,22.60
2023-02-25T15:19:21.695Z,22.60
2023-02-25T15:21:32.616Z,22.60
2023-02-25T15:23:50.989Z,22.70
2023-02-25T15:26:24.873Z,22.60
2023-02-25T15:28:29.524Z,22.70
2023-02-25T15:31:04.723Z,22.70
2023-02-25T15:33:23.138Z,22.60
2023-02-25T15:35:48.003Z,22.60
2023-02-25T15:37:55.770Z,22.60
2023-02-25T15:40:15.946Z,22.70
2023-02-25T15:42:51.601Z,22.60
2023-02-25T15:44:54.564Z,22.60
2023-02-25T15:47:18.198Z,22.60
2023-02-25T15:49:32.999Z,22.60
2023-02-25T15:51:53.537Z,22.60
2023-02-25T15:53:55.435Z,22.60
2023-02-25T15:56:06.518Z,22.60
2023-02-25T15:58:23.359Z,22.60
2023-02-25T16:00:47.372Z,22.60
2023-02-25T16:02:58.390Z,22.60
2023-02-25T16:05:03.074Z,22.60
2023-02-25T16:07:07.396Z,22.60
2023-02-25T16:09:17.155Z,22.60
2023-02-25T16:11:42.018Z,22.50
2023-02-25T16:13:43.855Z,22.60
2023-02-25T16:15:51.295Z,22.50
2023-02-25T16:17:56.061Z,22.50
2023-02-25T16:20:24.617Z,22.50
2023-02-25T16:22:28.662Z,22.50
2023-02-25T16:24:30.965Z,22.50
2023-02-25T16:27:03.233Z,22.50
2023-02-25T16:29:22.667Z,22.50
2023-02-25T16:31:36.623Z,22.50
2023-02-25T16:33:57.034Z,22.50
2023-02-25T16:36:20.342Z,22.40
2023-02-25T16:38:38.283Z,22.50
2023-02-25T16:40:42.639Z,22.50
2023-02-25T16:42:45.581Z,22.50
2023-02-25T16:45:04.550Z,22.50
2023-02-25T16:47:26.809Z,22.50
2023-02-25T16:49:39.869Z,22.50
2023-02-25T16:51:44.932Z,22.50
2023-02-25T16:53:49.659Z,22.50
2023-02-25T16:55:58.607Z,22.60
2023-02-25T16:58:24.493Z,22.50
2023-02-25T17:00:26.232Z,22.50
2023-02-25T17:02:27.947Z,22.50
2023-02-25T17:04:36.653Z,22.50
2023-02-25T17:06:38.450Z,22.50
2023-02-25T17:08:47.365Z,22.50
2023-02-25T17:10:53.150Z,22.50
2023-02-25T17:12:55.460Z,22.50
2023-02-25T17:15:00.358Z,22.50
2023-02-25T17:17:02.067Z,22.50
2023-02-25T17:19:08.605Z,22.50
2023-02-25T17:21:27.198Z,22.50
2023-02-25T17:23:29.530Z,22.50
2023-02-25T17:25:37.223Z,22.50
2023-02-25T17:27:40.744Z,22.40
2023-02-25T17:29:43.208Z,22.40
2023-02-25T17:31:55.806Z,22.40
2023-02-25T17:34:03.926Z,22.40
2023-02-25T17:36:11.197Z,22.30
2023-02-25T17:38:18.000Z,22.30
2023-02-25T17:40:24.157Z,22.30
2023-02-25T17:42:35.855Z,22.40
2023-02-25T17:44:42.410Z,22.40
2023-02-25T17:46:44.626Z,22.40
2023-02-25T17:48:55.466Z,22.40
2023-02-25T17:51:01.253Z,22.40
2023-02-25T17:53:02.903Z,22.40
2023-02-25T17:55:19.931Z,22.40
2023-02-25T17:57:24.502Z,22.40
2023-02-25T17:59:41.537Z,22.40
2023-02-25T18:01:55.460Z,22.50
2023-02-25T18:03:59.937Z,22.50
2023-02-25T18:06:02.734Z,22.50
2023-02-25T18:08:18.644Z,22.50
2023-02-25T18:10:23.037Z,22.50
2023-02-25T18:12:28.964Z,22.50
2023-02-25T18:14:38.147Z,22.60
2023-02-25T18:16:42.681Z,22.50
2023-02-25T18:18:49.161Z,22.50
2023-02-25T18:20:57.842Z,22.50
2023-02-25T18:23:27.609Z,22.60
2023-02-25T18:25:29.248Z,22.50
2023-02-25T18:27:32.725Z,22.50
2023-02-25T18:29:34.793Z,22.50
2023-02-25T18:31:36.422Z,22.50
2023-02-25T18:33:38.141Z,22.40
2023-02-25T18:35:43.119Z,22.40
2023-02-25T18:37:49.771Z,22.40
2023-02-25T18:39:51.623Z,22.50
2023-02-25T18:41:53.393Z,22.40
2023-02-25T18:43:55.015Z,22.40
2023-02-25T18:45:57.223Z,22.40
2023-02-25T18:48:00.765Z,22.50
2023-02-25T18:50:02.493Z,22.40
2023-02-25T18:52:04.213Z,22.40
2023-02-25T18:54:06.020Z,22.40
2023-02-25T18:56:08.634Z,22.40
2023-02-25T18:58:15.111Z,22.40
2023-02-25T19:00:20.280Z,22.40
2023-02-25T19:02:29.978Z,22.40
2023-02-25T19:04:31.682Z,22.40
2023-02-25T19:06:33.946Z,22.40
2023-02-25T19:08:35.566Z,22.40
2023-02-25T19:10:37.264Z,22.40
2023-02-25T19:12:38.920Z,22.40
2023-02-25T19:14:42.717Z,22.40
2023-02-25T19:16:44.385Z,22.50
2023-02-25T19:18:47.322Z,22.40
2023-02-25T19:20:49.152Z,22.40
2023-02-25T19:22:53.090Z,22.40
2023-02-25T19:24:54.756Z,22.40
2023-02-25T19:26:59.492Z,22.40
2023-02-25T19:29:01.104Z,22.40
2023-02-25T19:31:05.763Z,22.40
2023-02-25T19:33:09.817Z,22.50
2023-02-25T19:35:11.834Z,22.40
2023-02-25T19:37:15.680Z,22.50
2023-02-25T19:39:17.405Z,22.40
2023-02-25T19:41:19.051Z,22.40
2023-02-25T19:43:20.746Z,22.50
2023-02-25T19:45:24.974Z,22.50
2023-02-25T19:47:26.607Z,22.40
2023-02-25T19:49:28.822Z,22.40
2023-02-25T19:51:30.471Z,22.40
2023-02-25T19:53:32.200Z,22.40
2023-02-25T19:55:33.842Z,22.40
2023-02-25T19:57:35.443Z,22.40
2023-02-25T19:59:37.422Z,22.40
2023-02-25T20:01:40.173Z,22.50
2023-02-25T20:03:41.873Z,22.40
2023-02-25T20:05:44.598Z,22.40
2023-02-25T20:07:46.318Z,22.40
2023-02-25T20:09:47.975Z,22.40
2023-02-25T20:11:51.195Z,22.40
2023-02-25T20:13:52.929Z,22.40
2023-02-25T20:16:01.670Z,22.40
2023-02-25T20:18:03.492Z,22.40
2023-02-25T20:20:08.381Z,22.40
2023-02-25T20:22:10.166Z,22.40
2023-02-25T20:24:11.973Z,22.40
2023-02-25T20:26:15.164Z,22.40
2023-02-25T20:28:16.934Z,22.40
2023-02-25T20:30:18.825Z,22.40
2023-02-25T20:32:21.023Z,22.40
2023-02-25T20:34:26.215Z,22.40
2023-02-25T20:36:31.085Z,22.40
2023-02-25T20:38:38.059Z,22.40
2023-02-25T20:40:39.971Z,22.40
2023-02-25T20:42:41.719Z,22.40
2023-02-25T20:44:43.608Z,22.30
2023-02-25T20:46:45.974Z,22.40
2023-02-25T20:48:47.714Z,22.40
2023-02-25T20:50:49.608Z,22.40
2023-02-25T20:52:51.391Z,22.30
2023-02-25T20:54:53.871Z,22.30
2023-02-25T20:56:55.664Z,22.40
2023-02-25T20:58:57.636Z,22.40
2023-02-25T21:00:59.268Z,22.30
2023-02-25T21:03:00.902Z,22.30
2023-02-25T21:05:02.670Z,22.30
2023-02-25T21:07:04.547Z,22.30
2023-02-25T21:09:07.408Z,22.30
2023-02-25T21:11:09.056Z,22.30
2023-02-25T21:13:10.961Z,22.30
2023-02-25T21:15:12.616Z,22.30
2023-02-25T21:17:14.269Z,22.30
2023-02-25T21:19:15.927Z,22.30
2023-02-25T21:21:20.145Z,22.30
2023-02-25T21:23:21.787Z,22.30
2023-02-25T21:25:23.401Z,22.30
2023-02-25T21:27:25.756Z,22.30
2023-02-25T21:29:27.471Z,22.30
2023-02-25T21:31:29.216Z,22.30
2023-02-25T21:33:30.995Z,22.20
2023-02-25T21:35:32.607Z,22.20
2023-02-25T21:37:34.254Z,22.30
2023-02-25T21:39:35.902Z,22.30
2023-02-25T21:41:39.236Z,22.20
2023-02-25T21:43:42.635Z,22.20
2023-02-25T21:45:58.633Z,22.20
2023-02-25T21:48:00.345Z,22.20
2023-02-25T21:50:02.030Z,22.20
2023-02-25T21:52:03.988Z,22.20
2023-02-25T21:54:06.034Z,22.20
2023-02-25T21:56:14.624Z,22.20
2023-02-25T21:58:16.293Z,22.20
2023-02-25T22:00:18.396Z,22.20
2023-02-25T22:02:20.182Z,22.20
2023-02-25T22:04:21.838Z,22.20
2023-02-25T22:06:25.082Z,22.20
2023-02-25T22:08:26.892Z,22.20
2023-02-25T22:10:28.642Z,22.20
2023-02-25T22:12:30.306Z,22.20
2023-02-25T22:14:31.970Z,22.20
2023-02-25T22:16:34.547Z,22.20
2023-02-25T22:18:36.945Z,22.20
2023-02-25T22:20:38.578Z,22.20
2023-02-25T22:22:40.221Z,22.20
2023-02-25T22:24:41.823Z,22.10
2023-02-25T22:26:45.685Z,22.20
2023-02-25T22:28:47.880Z,22.20
2023-02-25T22:30:49.597Z,22.20
2023-02-25T22:32:51.358Z,22.20
2023-02-25T22:34:53.092Z,22.10
2023-02-25T22:36:54.758Z,22.20
2023-02-25T22:38:56.572Z,22.20
2023-02-25T22:40:59.162Z,22.10
2023-02-25T22:43:00.830Z,22.10
2023-02-25T22:45:02.533Z,22.20
2023-02-25T22:47:04.301Z,22.10
2023-02-25T22:49:07.490Z,22.10
2023-02-25T22:51:10.241Z,22.10
2023-02-25T22:53:12.013Z,22.10
2023-02-25T22:55:13.662Z,22.10
2023-02-25T22:57:15.295Z,22.10
2023-02-25T22:59:17.525Z,22.10
2023-02-25T23:01:21.257Z,22.10
2023-02-25T23:03:23.525Z,22.10
2023-02-25T23:05:25.128Z,22.10
2023-02-25T23:07:26.945Z,22.10
2023-02-25T23:09:28.542Z,22.10
2023-02-25T23:11:33.855Z,22.10
2023-02-25T23:13:35.737Z,22.10
2023-02-25T23:15:39.958Z,22.10
2023-02-25T23:17:41.946Z,22.10
2023-02-25T23:19:43.568Z,22.10
2023-02-25T23:21:45.829Z,22.10
2023-02-25T23:23:50.525Z,22.10
2023-02-25T23:25:54.242Z,22.10
2023-02-25T23:27:57.481Z,22.10
2023-02-25T23:29:59.135Z,22.10
2023-02-25T23:32:00.881Z,22.00
2023-02-25T23:34:08.878Z,22.10
2023-02-25T23:36:11.256Z,22.10
2023-02-25T23:38:13.125Z,22.10
2023-02-25T23:40:15.214Z,22.10
2023-02-25T23:42:16.918Z,22.00
2023-02-25T23:44:18.566Z,22.10
2023-02-25T23:46:20.951Z,22.10
2023-02-25T23:48:22.809Z,22.10
2023-02-25T23:50:25.225Z,22.10
2023-02-25T23:52:26.949Z,22.00
2023-02-25T23:54:28.593Z,22.00
2023-02-25T23:56:31.579Z,22.10
2023-02-25T23:58:33.690Z,22.00
